Time;durP1;ratioP1;P1;durP2;ratioP2;P2;SDS_P1;SDS_P2;PMS_P1;PMS_P2;Temp;Humidity;BMP_temperature;BMP_pressure;BME280_temperature;BME280_humidity;BME280_pressure;Samples;Min_cycle;Max_cycle;Signal;HPM_P1;HPM_P2
2022/11/10 00:00:02;;;;;;;1999.90;999.90;;;11.80;99.90;;;;;;4990674;28;20451;-68
2022/11/10 00:02:30;;;;;;;1999.90;999.90;;;11.80;99.90;;;;;;4991311;28;20470;-68
2022/11/10 00:04:56;;;;;;;1999.90;999.90;;;11.80;99.90;;;;;;4991374;28;20875;-69
2022/11/10 00:07:25;;;;;;;1999.90;999.90;;;11.80;99.90;;;;;;4992626;28;20459;-69
2022/11/10 00:09:52;;;;;;;1999.90;999.90;;;11.80;99.90;;;;;;4991707;28;21196;-68
2022/11/10 00:12:20;;;;;;;1999.90;999.90;;;11.80;99.90;;;;;;4991256;28;20509;-69
2022/11/10 00:17:31;;;;;;;1999.90;999.90;;;11.70;99.90;;;;;;4992373;28;21146;-69
2022/11/10 00:19:58;;;;;;;1999.90;999.90;;;11.70;99.90;;;;;;4993163;28;20922;-69
2022/11/10 00:22:25;;;;;;;1999.90;999.90;;;11.70;99.90;;;;;;4992371;28;20473;-68
2022/11/10 00:24:51;;;;;;;1999.90;999.90;;;11.70;99.90;;;;;;4992248;28;20493;-69
2022/11/10 00:27:20;;;;;;;1999.90;999.90;;;11.70;99.90;;;;;;4993039;28;20458;-68
2022/11/10 00:29:46;;;;;;;1999.90;999.90;;;11.70;99.90;;;;;;4992316;28;20451;-69
2022/11/10 00:32:13;;;;;;;1999.90;999.90;;;11.70;99.90;;;;;;4992290;28;20449;-69
2022/11/10 00:34:40;;;;;;;1999.90;999.90;;;11.60;99.90;;;;;;4993200;28;20443;-69
2022/11/10 00:37:07;;;;;;;1999.90;999.90;;;11.70;99.90;;;;;;4994018;28;21120;-68
2022/11/10 00:39:34;;;;;;;1999.90;999.90;;;11.70;99.90;;;;;;4992820;28;20837;-68
2022/11/10 00:42:00;;;;;;;1999.90;999.90;;;11.60;99.90;;;;;;4991877;28;20453;-68
2022/11/10 00:44:28;;;;;;;1999.90;999.90;;;11.60;99.90;;;;;;4992780;28;20502;-68
2022/11/10 00:46:55;;;;;;;1999.90;999.90;;;11.60;99.90;;;;;;4992252;28;20450;-68
2022/11/10 00:49:22;;;;;;;1999.90;999.90;;;11.60;99.90;;;;;;4992296;28;20461;-69
2022/11/10 00:51:49;;;;;;;1999.90;999.90;;;11.50;99.90;;;;;;4992607;28;20454;-68
2022/11/10 00:54:15;;;;;;;1999.90;999.90;;;11.50;99.90;;;;;;4991784;28;20481;-68
2022/11/10 00:56:42;;;;;;;1999.90;999.90;;;11.30;99.90;;;;;;4992626;28;20477;-69
2022/11/10 00:59:09;;;;;;;1999.90;999.90;;;11.30;99.90;;;;;;4991648;28;20446;-69
2022/11/10 01:01:37;;;;;;;1999.90;999.90;;;11.30;99.90;;;;;;4991851;28;20443;-68
2022/11/10 01:04:04;;;;;;;1999.90;999.90;;;11.30;99.90;;;;;;4991809;28;20521;-69
2022/11/10 01:06:31;;;;;;;1999.90;999.90;;;11.30;99.90;;;;;;4991408;28;20451;-68
2022/11/10 01:08:58;;;;;;;1999.90;999.90;;;11.30;99.90;;;;;;4991946;28;20457;-68
2022/11/10 01:11:27;;;;;;;1999.90;999.90;;;11.30;99.90;;;;;;4991284;28;20447;-69
2022/11/10 01:13:55;;;;;;;1999.90;999.90;;;11.30;99.90;;;;;;4991652;28;20854;-68
2022/11/10 01:16:23;;;;;;;1999.90;999.90;;;11.20;99.90;;;;;;4991752;28;21036;-69
2022/11/10 01:18:53;;;;;;;1999.90;999.90;;;11.20;99.90;;;;;;4991802;28;20466;-68
2022/11/10 01:21:20;;;;;;;1999.90;999.90;;;11.20;99.90;;;;;;4991883;28;20508;-68
2022/11/10 01:23:47;;;;;;;1999.90;999.90;;;11.20;99.90;;;;;;4990968;28;20477;-68
2022/11/10 01:26:15;;;;;;;1999.90;999.90;;;11.10;99.90;;;;;;4991634;28;20451;-68
2022/11/10 01:28:42;;;;;;;1999.90;999.90;;;11.10;99.90;;;;;;4991197;28;20489;-68
2022/11/10 01:31:11;;;;;;;1999.90;999.90;;;11.10;99.90;;;;;;4991450;28;20545;-68
2022/11/10 01:33:40;;;;;;;1999.90;999.90;;;11.10;99.90;;;;;;4991377;28;20471;-69
2022/11/10 01:36:10;;;;;;;1999.90;999.90;;;11.00;99.90;;;;;;4991072;28;20458;-68
2022/11/10 01:38:39;;;;;;;1999.90;999.90;;;10.90;99.90;;;;;;4991302;28;20451;-69
2022/11/10 01:41:09;;;;;;;1999.90;999.90;;;10.80;99.90;;;;;;4990581;28;20454;-69
2022/11/10 01:43:37;;;;;;;1999.90;999.90;;;10.70;99.90;;;;;;4991037;28;21007;-69
2022/11/10 01:46:05;;;;;;;1999.90;999.90;;;10.70;99.90;;;;;;4990675;28;21023;-69
2022/11/10 01:48:36;;;;;;;1999.90;999.90;;;10.70;99.90;;;;;;4990879;28;20983;-68
2022/11/10 01:51:06;;;;;;;1999.90;999.90;;;10.80;99.90;;;;;;4991197;28;20447;-68
2022/11/10 01:53:38;;;;;;;1999.90;999.90;;;10.80;99.90;;;;;;4990063;28;20470;-68
2022/11/10 01:56:08;;;;;;;1999.90;999.90;;;10.80;99.90;;;;;;4991152;28;20439;-68
2022/11/10 01:58:39;;;;;;;1999.90;999.90;;;10.70;99.90;;;;;;4990464;28;20454;-68
2022/11/10 02:01:06;;;;;;;1999.90;999.90;;;10.60;99.90;;;;;;4991097;28;20442;-69
2022/11/10 02:03:37;;;;;;;1999.90;999.90;;;10.50;99.90;;;;;;4990565;28;20478;-68
2022/11/10 02:06:04;;;;;;;1999.90;999.90;;;10.40;99.90;;;;;;4990575;28;20493;-69
2022/11/10 02:08:32;;;;;;;1999.90;999.90;;;10.40;99.90;;;;;;4990785;28;20529;-69
2022/11/10 02:11:00;;;;;;;1999.90;999.90;;;10.40;99.90;;;;;;4990174;28;20450;-69
2022/11/10 02:13:27;;;;;;;1999.90;999.90;;;10.30;99.90;;;;;;4990962;28;20470;-68
2022/11/10 02:15:53;;;;;;;1999.90;999.90;;;10.20;99.90;;;;;;4990526;28;20451;-69
2022/11/10 02:18:20;;;;;;;1999.90;999.90;;;10.20;99.90;;;;;;4990721;28;20860;-68
2022/11/10 02:20:48;;;;;;;1999.90;999.90;;;10.10;99.90;;;;;;4990414;28;20459;-68
2022/11/10 02:23:48;;;;;;;1999.90;999.90;;;9.90;99.90;;;;;;4990099;28;20485;-68
2022/11/10 02:26:18;;;;;;;1999.90;999.90;;;9.90;99.90;;;;;;4990612;28;20482;-68
2022/11/10 02:28:45;;;;;;;1999.90;999.90;;;9.90;99.90;;;;;;4990427;28;20455;-69
2022/11/10 02:31:12;;;;;;;1999.90;999.90;;;9.80;99.90;;;;;;4991111;28;20450;-68
2022/11/10 02:33:39;;;;;;;1999.90;999.90;;;9.80;99.90;;;;;;4989993;28;20467;-68
2022/11/10 02:36:08;;;;;;;1999.90;999.90;;;9.80;99.90;;;;;;4991251;28;20443;-68
2022/11/10 02:38:35;;;;;;;1999.90;999.90;;;9.80;99.90;;;;;;4990944;28;20447;-69
2022/11/10 02:41:02;;;;;;;1999.90;999.90;;;9.70;99.90;;;;;;4989974;28;20674;-68
2022/11/10 02:43:29;;;;;;;1999.90;999.90;;;9.70;99.90;;;;;;4990122;28;20466;-69
2022/11/10 02:45:56;;;;;;;1999.90;999.90;;;9.70;99.90;;;;;;4990102;28;20485;-68
2022/11/10 02:48:23;;;;;;;1999.90;999.90;;;9.60;99.90;;;;;;4991466;28;20455;-69
2022/11/10 02:50:50;;;;;;;1999.90;999.90;;;9.50;99.90;;;;;;4990661;28;20457;-68
2022/11/10 02:53:18;;;;;;;1999.90;999.90;;;9.40;99.90;;;;;;4989775;28;20568;-70
2022/11/10 02:55:45;;;;;;;1999.90;999.90;;;9.40;99.90;;;;;;4990623;28;20450;-68
2022/11/10 02:58:12;;;;;;;1999.90;999.90;;;9.40;99.90;;;;;;4989948;28;20976;-68
2022/11/10 03:00:39;;;;;;;1999.90;999.90;;;9.40;99.90;;;;;;4990303;28;21135;-67
2022/11/10 03:03:06;;;;;;;1999.90;999.90;;;9.30;99.90;;;;;;4989558;28;20988;-68
2022/11/10 03:05:33;;;;;;;1999.90;999.90;;;9.30;99.90;;;;;;4990451;28;20848;-68
2022/11/10 03:08:01;;;;;;;1999.90;999.90;;;9.30;99.90;;;;;;4990259;28;20478;-70
2022/11/10 03:10:30;;;;;;;1999.90;999.90;;;9.30;99.90;;;;;;4989943;28;20447;-68
2022/11/10 03:12:59;;;;;;;1999.90;999.90;;;9.20;99.90;;;;;;4989920;28;20478;-68
2022/11/10 03:15:26;;;;;;;1999.90;999.90;;;9.20;99.90;;;;;;4989539;28;20447;-69
2022/11/10 03:17:53;;;;;;;1999.90;999.90;;;9.10;99.90;;;;;;4990059;28;20447;-68
2022/11/10 03:20:20;;;;;;;1999.90;999.90;;;9.10;99.90;;;;;;4989526;28;20451;-69
2022/11/10 03:22:47;;;;;;;1999.90;999.90;;;9.20;99.90;;;;;;4989638;28;20474;-68
2022/11/10 03:25:13;;;;;;;1999.90;999.90;;;9.20;99.90;;;;;;4989676;28;21008;-68
2022/11/10 03:27:42;;;;;;;1999.90;999.90;;;9.20;99.90;;;;;;4989616;28;20456;-69
2022/11/10 03:30:09;;;;;;;1999.90;999.90;;;9.30;99.90;;;;;;4990205;28;20451;-69
2022/11/10 03:32:36;;;;;;;1999.90;999.90;;;9.20;99.90;;;;;;4991563;28;21005;-69
2022/11/10 03:35:03;;;;;;;1999.90;999.90;;;9.20;99.90;;;;;;4994027;28;20486;-69
2022/11/10 03:37:29;;;;;;;1999.90;999.90;;;9.10;99.90;;;;;;4993221;28;20964;-70
2022/11/10 03:39:56;;;;;;;1999.90;999.90;;;9.20;99.90;;;;;;4993785;28;20453;-68
2022/11/10 03:42:23;;;;;;;1999.90;999.90;;;9.10;99.90;;;;;;4992914;28;20466;-69
2022/11/10 03:44:54;;;;;;;1999.90;999.90;;;9.20;99.90;;;;;;4993603;28;20482;-68
2022/11/10 03:47:20;;;;;;;1999.90;999.90;;;9.20;99.90;;;;;;4993789;28;20485;-69
2022/11/10 03:49:47;;;;;;;1999.90;999.90;;;9.20;99.90;;;;;;4993215;28;20446;-68
2022/11/10 03:52:14;;;;;;;1999.90;999.90;;;9.20;99.90;;;;;;4992945;28;20451;-68
2022/11/10 03:54:41;;;;;;;1999.90;999.90;;;9.30;99.90;;;;;;4993104;28;20459;-68
2022/11/10 03:57:08;;;;;;;1999.90;999.90;;;9.30;99.90;;;;;;4993821;28;20458;-68
2022/11/10 03:59:35;;;;;;;1999.90;999.90;;;9.40;99.90;;;;;;4993303;28;21013;-68
2022/11/10 04:02:03;;;;;;;1999.90;999.90;;;9.40;99.90;;;;;;4992934;28;20734;-69
2022/11/10 04:10:08;;;;;;;1999.90;999.90;;;9.60;99.90;;;;;;4980232;28;20542;-68
2022/11/10 04:18:28;;;;;;;1999.90;999.90;;;9.70;99.90;;;;;;4992565;28;20426;-69
2022/11/10 04:20:56;;;;;;;1999.90;999.90;;;9.80;99.90;;;;;;4992884;28;20447;-68
2022/11/10 04:23:27;;;;;;;1999.90;999.90;;;9.90;99.90;;;;;;4992443;28;20463;-68
2022/11/10 04:28:40;;;;;;;1999.90;999.90;;;9.80;99.90;;;;;;4992660;28;20426;-68
2022/11/10 04:31:07;;;;;;;1999.90;999.90;;;9.80;99.90;;;;;;4992637;28;20447;-69
2022/11/10 04:33:36;;;;;;;1999.90;999.90;;;9.80;99.90;;;;;;4992445;28;20473;-68
2022/11/10 04:36:03;;;;;;;1999.90;999.90;;;9.80;99.90;;;;;;4992394;28;20517;-68
2022/11/10 04:38:29;;;;;;;1999.90;999.90;;;9.70;99.90;;;;;;4992563;28;20451;-70
2022/11/10 04:40:56;;;;;;;1999.90;999.90;;;9.70;99.90;;;;;;4991804;28;20451;-68
2022/11/10 04:43:23;;;;;;;1999.90;999.90;;;9.60;99.90;;;;;;4991646;28;20474;-68
2022/11/10 04:45:50;;;;;;;1999.90;999.90;;;9.50;99.90;;;;;;4992263;28;20501;-68
2022/11/10 04:48:17;;;;;;;1999.90;999.90;;;9.50;99.90;;;;;;4992792;28;20443;-68
2022/11/10 04:50:45;;;;;;;1999.90;999.90;;;9.50;99.90;;;;;;4992319;28;20535;-69
2022/11/10 04:53:12;;;;;;;1999.90;999.90;;;9.40;99.90;;;;;;4991875;28;20482;-69
2022/11/10 04:55:40;;;;;;;1999.90;999.90;;;9.40;99.90;;;;;;4992831;28;20451;-68
2022/11/10 04:58:07;;;;;;;1999.90;999.90;;;9.40;99.90;;;;;;4993007;28;21022;-69
2022/11/10 05:00:35;;;;;;;1999.90;999.90;;;9.30;99.90;;;;;;4993235;28;20453;-72
2022/11/10 05:03:03;;;;;;;1999.90;999.90;;;9.20;99.90;;;;;;4992179;28;20482;-68
2022/11/10 05:05:30;;;;;;;1999.90;999.90;;;9.10;99.90;;;;;;4992335;28;20485;-70
2022/11/10 05:07:58;;;;;;;1999.90;999.90;;;9.00;99.90;;;;;;4992251;28;20496;-71
2022/11/10 05:10:26;;;;;;;1999.90;999.90;;;9.10;99.90;;;;;;4992232;28;20446;-69
2022/11/10 05:12:53;;;;;;;1999.90;999.90;;;9.20;99.90;;;;;;4991950;28;21011;-70
2022/11/10 05:15:20;;;;;;;1999.90;999.90;;;9.20;99.90;;;;;;4991811;28;20447;-68
2022/11/10 05:17:49;;;;;;;1999.90;999.90;;;9.20;99.90;;;;;;4992158;28;20443;-71
2022/11/10 05:20:16;;;;;;;1999.90;999.90;;;9.10;99.90;;;;;;4991327;28;20442;-69
2022/11/10 05:23:36;;;;;;;1999.90;999.90;;;9.10;99.90;;;;;;4991439;28;20473;-71
2022/11/10 05:25:36;;;;;;;1999.90;999.90;;;9.10;99.90;;;;;;4991064;28;20544;-70
2022/11/10 05:28:02;;;;;;;1999.90;999.90;;;9.10;99.90;;;;;;4991755;28;20785;-70
2022/11/10 05:30:29;;;;;;;1999.90;999.90;;;9.00;99.90;;;;;;4991982;28;20983;-71
2022/11/10 05:32:56;;;;;;;1999.90;999.90;;;9.00;99.90;;;;;;4990630;28;20823;-69
2022/11/10 05:35:24;;;;;;;1999.90;999.90;;;9.00;99.90;;;;;;4991761;28;20443;-70
2022/11/10 05:37:51;;;;;;;1999.90;999.90;;;9.00;99.90;;;;;;4991166;28;20850;-69
2022/11/10 05:40:18;;;;;;;1999.90;999.90;;;9.00;99.90;;;;;;4991838;28;20450;-70
2022/11/10 05:42:48;;;;;;;1999.90;999.90;;;9.00;99.90;;;;;;4990711;28;20463;-68
2022/11/10 05:45:15;;;;;;;1999.90;999.90;;;8.90;99.90;;;;;;4991162;28;20445;-69
2022/11/10 05:47:42;;;;;;;1999.90;999.90;;;8.90;99.90;;;;;;4991330;28;20541;-70
2022/11/10 05:50:09;;;;;;;1999.90;999.90;;;8.90;99.90;;;;;;4990795;28;20450;-70
2022/11/10 05:52:41;;;;;;;1999.90;999.90;;;8.80;99.90;;;;;;4991010;28;20500;-70
2022/11/10 05:55:09;;;;;;;1999.90;999.90;;;8.80;99.90;;;;;;4990229;28;20450;-70
2022/11/10 05:57:35;;;;;;;1999.90;999.90;;;8.70;99.90;;;;;;4991130;28;20963;-71
2022/11/10 06:00:05;;;;;;;1999.90;999.90;;;8.70;99.90;;;;;;4991209;28;20453;-69
2022/11/10 06:02:32;;;;;;;1999.90;999.90;;;8.60;99.90;;;;;;4990829;28;20471;-68
2022/11/10 06:04:59;;;;;;;1999.90;999.90;;;8.40;99.90;;;;;;4990366;28;21120;-70
2022/11/10 06:07:25;;;;;;;1999.90;999.90;;;8.40;99.90;;;;;;4989072;28;20500;-69
2022/11/10 06:09:52;;;;;;;1999.90;999.90;;;8.40;99.90;;;;;;4989758;28;20461;-69
2022/11/10 06:12:20;;;;;;;1999.90;999.90;;;8.40;99.90;;;;;;4989269;28;20501;-70
2022/11/10 06:14:47;;;;;;;1999.90;999.90;;;8.40;99.90;;;;;;4990737;28;20451;-68
2022/11/10 06:17:15;;;;;;;1999.90;999.90;;;8.40;99.90;;;;;;4989504;28;20847;-69
2022/11/10 06:19:42;;;;;;;1999.90;999.90;;;8.40;99.90;;;;;;4987389;28;20474;-70
2022/11/10 06:22:09;;;;;;;1999.90;999.90;;;8.40;99.90;;;;;;4988304;28;20454;-70
2022/11/10 06:24:36;;;;;;;1999.90;999.90;;;8.30;99.90;;;;;;4988811;28;20443;-69
2022/11/10 06:27:03;;;;;;;1999.90;999.90;;;8.40;99.90;;;;;;4989075;28;20490;-69
2022/11/10 06:29:30;;;;;;;1999.90;999.90;;;8.30;99.90;;;;;;4988691;28;20541;-71
2022/11/10 06:31:57;;;;;;;1999.90;999.90;;;8.20;99.90;;;;;;4988830;28;20823;-71
2022/11/10 06:34:25;;;;;;;1999.90;999.90;;;8.10;99.90;;;;;;4989079;28;20482;-68
2022/11/10 06:36:59;;;;;;;1999.90;999.90;;;8.20;99.90;;;;;;4990588;28;20450;-70
2022/11/10 06:39:26;;;;;;;1999.90;999.90;;;8.20;99.90;;;;;;4990002;28;20474;-67
2022/11/10 06:41:52;;;;;;;1999.90;999.90;;;8.20;99.90;;;;;;4989898;28;20461;-69
2022/11/10 06:44:19;;;;;;;1999.90;999.90;;;8.30;99.90;;;;;;4990455;28;21003;-69
2022/11/10 06:46:46;;;;;;;1999.90;999.90;;;8.40;99.90;;;;;;4989856;28;20493;-69
2022/11/10 06:49:13;;;;;;;1999.90;999.90;;;8.40;99.90;;;;;;4990510;28;20454;-68
2022/11/10 06:51:41;;;;;;;1999.90;999.90;;;8.40;99.90;;;;;;4989943;28;20454;-69
2022/11/10 06:54:19;;;;;;;1999.90;999.90;;;8.40;99.90;;;;;;4990235;28;20486;-68
2022/11/10 06:56:47;;;;;;;1999.90;999.90;;;8.50;99.90;;;;;;4990056;28;20446;-69
2022/11/10 06:59:15;;;;;;;1999.90;999.90;;;8.60;99.90;;;;;;4990567;28;20478;-69
2022/11/10 07:01:42;;;;;;;1999.90;999.90;;;8.50;99.90;;;;;;4989807;28;20458;-69
2022/11/10 07:04:09;;;;;;;1999.90;999.90;;;8.60;99.90;;;;;;4990422;28;20470;-69
2022/11/10 07:06:36;;;;;;;1999.90;999.90;;;8.70;99.90;;;;;;4992708;28;20478;-70
2022/11/10 07:09:04;;;;;;;1999.90;999.90;;;8.80;99.90;;;;;;5001694;28;20454;-69
2022/11/10 07:11:30;;;;;;;1999.90;999.90;;;9.00;99.90;;;;;;4994693;28;20861;-69
2022/11/10 07:13:57;;;;;;;1999.90;999.90;;;9.00;99.90;;;;;;4995270;28;20832;-69
2022/11/10 07:16:24;;;;;;;1999.90;999.90;;;9.00;99.90;;;;;;4994887;28;20438;-70
2022/11/10 07:18:51;;;;;;;1999.90;999.90;;;8.90;99.90;;;;;;4994187;28;20529;-69
2022/11/10 07:21:17;;;;;;;1999.90;999.90;;;9.00;99.90;;;;;;4994581;28;20438;-69
2022/11/10 07:23:45;;;;;;;1999.90;999.90;;;9.20;99.90;;;;;;4993879;28;20474;-69
2022/11/10 07:26:13;;;;;;;1999.90;999.90;;;9.20;99.90;;;;;;4993721;28;21238;-69
2022/11/10 07:28:41;;;;;;;1999.90;999.90;;;9.30;99.90;;;;;;4994173;28;20542;-70
2022/11/10 07:31:08;;;;;;;1999.90;999.90;;;9.30;99.90;;;;;;4993690;28;20471;-68
2022/11/10 07:33:34;;;;;;;1999.90;999.90;;;9.40;99.90;;;;;;4993859;28;20475;-70
2022/11/10 07:36:03;;;;;;;1999.90;999.90;;;9.40;99.90;;;;;;4993803;28;20538;-69
2022/11/10 07:38:30;;;;;;;1999.90;999.90;;;9.30;99.90;;;;;;4994332;28;20454;-69
2022/11/10 07:40:56;;;;;;;1999.90;999.90;;;9.30;99.90;;;;;;4993235;28;20451;-70
2022/11/10 07:43:25;;;;;;;1999.90;999.90;;;9.40;99.90;;;;;;4993668;28;20474;-69
2022/11/10 07:45:53;;;;;;;1999.90;999.90;;;9.50;99.90;;;;;;4993457;28;20478;-69
2022/11/10 07:48:20;;;;;;;1999.90;999.90;;;9.50;99.90;;;;;;4993725;28;20447;-69
2022/11/10 07:50:47;;;;;;;1999.90;999.90;;;9.70;99.90;;;;;;4993753;28;20442;-69
2022/11/10 07:53:15;;;;;;;1999.90;999.90;;;9.70;99.90;;;;;;4993022;28;20475;-70
2022/11/10 07:55:44;;;;;;;1999.90;999.90;;;9.80;99.90;;;;;;4993507;28;20902;-70
2022/11/10 07:58:12;;;;;;;1999.90;999.90;;;9.80;99.90;;;;;;4993063;28;20959;-69
2022/11/10 08:00:41;;;;;;;1999.90;999.90;;;9.90;99.90;;;;;;4993071;28;20450;-69
2022/11/10 08:03:11;;;;;;;1999.90;999.90;;;10.00;99.90;;;;;;4992981;28;20845;-70
2022/11/10 08:05:39;;;;;;;1999.90;999.90;;;10.10;99.90;;;;;;4993393;28;20817;-69
2022/11/10 08:08:06;;;;;;;1999.90;999.90;;;10.20;99.90;;;;;;4993211;28;21032;-69
2022/11/10 08:10:34;;;;;;;1999.90;999.90;;;10.30;99.90;;;;;;4993278;28;20458;-69
2022/11/10 08:13:02;;;;;;;1999.90;999.90;;;10.40;99.90;;;;;;4993337;28;20525;-68
2022/11/10 08:15:31;;;;;;;1999.90;999.90;;;10.60;99.90;;;;;;4992952;28;20454;-69
2022/11/10 08:18:00;;;;;;;1999.90;999.90;;;10.70;99.90;;;;;;4992182;28;20447;-69
2022/11/10 08:20:27;;;;;;;1999.90;999.90;;;10.80;99.90;;;;;;4992812;28;21103;-70
2022/11/10 08:22:58;;;;;;;1999.90;999.90;;;10.80;99.90;;;;;;4992930;28;20466;-69
2022/11/10 08:25:25;;;;;;;1999.90;999.90;;;10.90;99.90;;;;;;4992707;28;20442;-70
2022/11/10 08:27:58;;;;;;;1999.90;999.90;;;11.00;99.90;;;;;;4992867;28;20910;-69
2022/11/10 08:30:25;;;;;;;1999.90;999.90;;;11.10;99.90;;;;;;4992682;28;20438;-69
2022/11/10 08:32:54;;;;;;;1999.90;999.90;;;11.20;99.90;;;;;;4992356;28;20857;-69
2022/11/10 08:35:23;;;;;;;1999.90;999.90;;;11.20;99.90;;;;;;4992685;28;20450;-70
2022/11/10 08:37:50;;;;;;;1999.90;999.90;;;11.30;99.90;;;;;;4992776;28;20439;-71
2022/11/10 08:40:17;;;;;;;1999.90;999.90;;;11.40;99.90;;;;;;4992719;28;20987;-70
2022/11/10 08:42:43;;;;;;;1999.90;999.90;;;11.40;99.90;;;;;;4992191;28;20462;-70
2022/11/10 08:45:10;;;;;;;1999.90;999.90;;;11.50;99.90;;;;;;4992656;28;20457;-69
2022/11/10 08:47:37;;;;;;;1999.90;999.90;;;11.50;99.90;;;;;;4992150;28;20490;-69
2022/11/10 08:50:05;;;;;;;1999.90;999.90;;;11.60;99.90;;;;;;4992725;28;20451;-71
2022/11/10 08:52:33;;;;;;;1999.90;999.90;;;11.60;99.90;;;;;;4991705;28;20557;-68
2022/11/10 08:54:59;;;;;;;1999.90;999.90;;;11.60;99.90;;;;;;4992848;28;20454;-69
2022/11/10 08:57:26;;;;;;;1999.90;999.90;;;11.70;99.90;;;;;;4992907;28;20458;-72
2022/11/10 08:59:53;;;;;;;1999.90;999.90;;;11.80;99.90;;;;;;4992586;28;20447;-71
2022/11/10 09:02:19;;;;;;;1999.90;999.90;;;11.90;99.90;;;;;;4992335;28;20450;-68
2022/11/10 09:04:46;;;;;;;1999.90;999.90;;;12.00;99.90;;;;;;4992287;28;20447;-71
2022/11/10 09:07:13;;;;;;;1999.90;999.90;;;12.10;99.90;;;;;;4992332;28;20482;-70
2022/11/10 09:09:41;;;;;;;1999.90;999.90;;;12.10;99.90;;;;;;4992787;28;20469;-68
2022/11/10 09:12:08;;;;;;;1999.90;999.90;;;12.20;99.90;;;;;;4992536;28;20826;-68
2022/11/10 09:14:35;;;;;;;1999.90;999.90;;;12.30;99.90;;;;;;4992376;28;20450;-71
2022/11/10 09:17:01;;;;;;;1999.90;999.90;;;12.40;99.90;;;;;;4996221;28;20447;-71
2022/11/10 09:19:28;;;;;;;1999.90;999.90;;;12.50;99.90;;;;;;4994142;28;20450;-68
2022/11/10 09:21:55;;;;;;;1999.90;999.90;;;12.60;99.90;;;;;;4991497;28;20453;-68
2022/11/10 09:24:22;;;;;;;1999.90;999.90;;;12.60;99.90;;;;;;4992236;28;20475;-71
2022/11/10 09:26:50;;;;;;;1999.90;999.90;;;12.80;99.90;;;;;;4991694;28;20487;-68
2022/11/10 09:29:17;;;;;;;1999.90;999.90;;;13.00;99.90;;;;;;4991769;28;20462;-68
2022/11/10 09:31:44;;;;;;;1999.90;999.90;;;13.20;99.90;;;;;;4990507;28;20474;-70
2022/11/10 09:34:11;;;;;;;1999.90;999.90;;;13.40;99.90;;;;;;4991533;28;20529;-69
2022/11/10 09:36:39;;;;;;;1999.90;999.90;;;13.60;99.90;;;;;;4991060;28;20450;-70
2022/11/10 09:39:06;;;;;;;1999.90;999.90;;;13.90;99.90;;;;;;4991933;28;20439;-67
2022/11/10 09:41:33;;;;;;;1999.90;999.90;;;14.30;99.90;;;;;;4991361;28;20451;-69
2022/11/10 09:44:05;;;;;;;1999.90;999.90;;;14.50;99.90;;;;;;4988735;28;20478;-68
2022/11/10 09:46:37;;;;;;;1999.90;999.90;;;14.90;99.90;;;;;;4991854;28;20504;-68
2022/11/10 09:49:14;;;;;;;1999.90;999.90;;;15.20;99.90;;;;;;4991261;28;20447;-71
2022/11/10 09:51:43;;;;;;;1999.90;999.90;;;15.70;99.90;;;;;;4992029;28;20441;-71
2022/11/10 09:54:25;;;;;;;1999.90;999.90;;;16.10;99.90;;;;;;4991383;28;20479;-68
2022/11/10 09:56:55;;;;;;;1999.90;999.90;;;16.50;99.90;;;;;;4991678;28;20431;-70
2022/11/10 09:59:27;;;;;;;1999.90;999.90;;;17.00;99.90;;;;;;4990997;28;20935;-69
2022/11/10 10:02:00;;;;;;;1999.90;999.90;;;17.20;99.90;;;;;;4991463;28;20462;-69
2022/11/10 10:04:43;;;;;;;1999.90;999.90;;;17.50;99.90;;;;;;4991052;28;21078;-71
2022/11/10 10:07:14;;;;;;;1999.90;999.90;;;17.70;99.90;;;;;;4991501;28;20498;-68
2022/11/10 10:09:49;;;;;;;1999.90;999.90;;;17.40;99.90;;;;;;4991191;28;21100;-70
2022/11/10 10:12:29;;;;;;;1999.90;999.90;;;17.30;99.90;;;;;;4990844;28;20442;-68
2022/11/10 10:15:11;;;;;;;1999.90;999.90;;;17.10;99.90;;;;;;4991360;28;20446;-69
2022/11/10 10:17:45;;;;;;;1999.90;999.90;;;17.30;99.90;;;;;;4991339;28;20426;-69
2022/11/10 10:20:18;;;;;;;1999.90;999.90;;;17.80;99.90;;;;;;4992455;28;20912;-68
2022/11/10 10:23:04;;;;;;;1999.90;999.90;;;18.10;99.90;;;;;;4991392;28;20470;-67
2022/11/10 10:25:32;;;;;;;1999.90;999.90;;;18.10;99.90;;;;;;4991642;28;20449;-69
2022/11/10 10:28:06;;;;;;;1999.90;999.90;;;18.50;99.90;;;;;;4990548;28;20486;-68
2022/11/10 10:30:34;;;;;;;1999.90;999.90;;;19.00;99.90;;;;;;4990751;28;20980;-67
2022/11/10 10:33:13;;;;;;;1999.90;999.90;;;19.30;99.90;;;;;;4989100;28;20474;-71
2022/11/10 10:35:40;;;;;;;1999.90;999.90;;;19.30;99.90;;;;;;4985185;28;20439;-70
2022/11/10 10:38:17;;;;;;;1999.90;999.90;;;18.70;99.90;;;;;;4989578;28;20514;-68
2022/11/10 10:40:46;;;;;;;1999.90;999.90;;;18.10;99.90;;;;;;4989476;28;20434;-69
2022/11/10 10:43:13;;;;;;;1999.90;999.90;;;17.90;99.90;;;;;;4989669;28;20470;-68
2022/11/10 10:45:41;;;;;;;1999.90;999.90;;;18.10;99.90;;;;;;4990493;28;20438;-67
2022/11/10 10:48:24;;;;;;;1999.90;999.90;;;18.20;99.90;;;;;;4990410;28;20508;-67
2022/11/10 10:50:51;;;;;;;1999.90;999.90;;;17.70;99.90;;;;;;4989798;28;20497;-70
2022/11/10 10:53:19;;;;;;;1999.90;999.90;;;17.30;99.90;;;;;;4989996;28;20474;-68
2022/11/10 10:55:48;;;;;;;1999.90;999.90;;;16.80;99.90;;;;;;4985929;28;20470;-67
2022/11/10 10:58:22;;;;;;;1999.90;999.90;;;16.20;99.90;;;;;;4990096;28;20825;-69
2022/11/10 11:00:51;;;;;;;1999.90;999.90;;;15.70;99.90;;;;;;4989767;28;20469;-70
2022/11/10 11:03:27;;;;;;;1999.90;999.90;;;15.40;99.90;;;;;;4990284;28;20466;-67
2022/11/10 11:06:07;;;;;;;1999.90;999.90;;;15.20;99.90;;;;;;4989744;28;20505;-63
2022/11/10 11:08:34;;;;;;;1999.90;999.90;;;15.10;99.90;;;;;;4990322;28;20489;-68
2022/11/10 11:11:11;;;;;;;1999.90;999.90;;;15.10;99.90;;;;;;4989913;28;20450;-67
2022/11/10 11:13:38;;;;;;;1999.90;999.90;;;15.10;99.90;;;;;;4989950;28;20463;-69
2022/11/10 11:16:11;;;;;;;1999.90;999.90;;;15.20;99.90;;;;;;4986030;28;20443;-70
2022/11/10 11:18:40;;;;;;;1999.90;999.90;;;15.20;99.90;;;;;;4987418;28;20450;-66
2022/11/10 11:21:15;;;;;;;1999.90;999.90;;;15.20;99.90;;;;;;4989633;28;20454;-68
2022/11/10 11:24:10;;;;;;;1999.90;999.90;;;15.20;99.90;;;;;;4992527;28;20500;-68
2022/11/10 11:26:48;;;;;;;1999.90;999.90;;;15.10;99.90;;;;;;4988999;28;20485;-69
2022/11/10 11:29:29;;;;;;;1999.90;999.90;;;15.00;99.90;;;;;;4990068;28;20460;-69
2022/11/10 11:32:09;;;;;;;1999.90;999.90;;;15.00;99.90;;;;;;4989576;28;20442;-68
2022/11/10 11:34:43;;;;;;;1999.90;999.90;;;15.10;99.90;;;;;;4990171;28;20447;-67
2022/11/10 11:37:20;;;;;;;1999.90;999.90;;;15.30;99.90;;;;;;4989828;28;20449;-69
2022/11/10 11:40:00;;;;;;;1999.90;999.90;;;15.30;99.90;;;;;;4990607;28;20447;-67
2022/11/10 11:42:41;;;;;;;1999.90;999.90;;;15.20;99.90;;;;;;4989175;28;20471;-67
2022/11/10 11:45:18;;;;;;;1999.90;999.90;;;15.10;99.90;;;;;;4990268;28;20446;-67
2022/11/10 11:48:07;;;;;;;1999.90;999.90;;;15.00;99.90;;;;;;4989350;28;20483;-66
2022/11/10 11:50:41;;;;;;;1999.90;999.90;;;15.00;99.90;;;;;;4989595;28;20952;-70
2022/11/10 11:53:21;;;;;;;1999.90;999.90;;;15.00;99.90;;;;;;4990891;28;20482;-70
2022/11/10 11:56:04;;;;;;;1999.90;999.90;;;15.10;99.90;;;;;;4993781;28;20458;-71
2022/11/10 11:58:40;;;;;;;1999.90;999.90;;;15.20;99.90;;;;;;4993534;28;20835;-67
2022/11/10 12:01:23;;;;;;;1999.90;999.90;;;15.10;99.90;;;;;;4993592;28;20461;-67
2022/11/10 12:04:11;;;;;;;1999.90;999.90;;;15.10;99.90;;;;;;4992828;28;20469;-67
2022/11/10 12:06:48;;;;;;;1999.90;999.90;;;14.90;99.90;;;;;;4993691;28;20458;-70
2022/11/10 12:09:27;;;;;;;1999.90;999.90;;;14.90;99.90;;;;;;4993255;28;20438;-68
2022/11/10 12:12:07;;;;;;;1999.90;999.90;;;14.70;99.90;;;;;;4993361;28;20455;-67
2022/11/10 12:14:46;;;;;;;1999.90;999.90;;;14.50;99.90;;;;;;4993450;28;20450;-70
2022/11/10 12:17:21;;;;;;;1999.90;999.90;;;14.40;99.90;;;;;;4993402;28;20479;-68
2022/11/10 12:19:59;;;;;;;1999.90;999.90;;;14.30;99.90;;;;;;4993449;28;20489;-68
2022/11/10 12:22:36;;;;;;;1999.90;999.90;;;14.20;99.90;;;;;;4992416;28;20486;-68
2022/11/10 12:25:15;;;;;;;1999.90;999.90;;;14.10;99.90;;;;;;4993013;28;20451;-67
2022/11/10 12:27:49;;;;;;;1999.90;999.90;;;14.20;99.90;;;;;;4992597;28;20490;-67
2022/11/10 12:30:17;;;;;;;1999.90;999.90;;;14.30;99.90;;;;;;4992991;28;20450;-68